Missoula, MT

2:33 PM MDT on August 30, 2014 (GMT -0600)
Missoula International | Change Station
CLOSE
Current Station
Airport
Location: Missoula,
Elevation: 3189 ft
Nearby Weather Stations

Elev 3189 ft 46.92 °N, 114.09 °W | Updated 40 minutes ago

Partly Cloudy
Partly Cloudy
73 °F
Feels Like 73 °F
N
15
Wind Variable Wind from NW
Gusts 21 mph

Today
High -- | Low -- °F
--% Chance of Precip.
Yesterday
High -- | Low -- °F
Precip. -- in
6:53 AM 8:19 PM
Waxing Crescent, 24% visible
Pressure 29.78 in
Visibility 10.0 miles
Clouds Few 8000 ft
Dew Point 41 °F
Humidity 31%
Rainfall 0.00 in
Snow Depth 0 in
UV 8 out of 12
Pollen 8.00 out of 12
Air Quality Not available.
Flu Activity Not available.
METAR KMSO 301953Z 32013G18KT 10SM FEW080 23/05 A2985 RMK AO2 PK WND 28027/1930 SLP085 T02280050

More Conditions Fewer Conditions

Pressure 29.78 in
Visibility 10.0 miles
Clouds Few 8000 ft
Dew Point 41 °F
Humidity 31%
Rainfall 0.00 in
Snow Depth 0 in
UV 8 out of 12
Pollen 8.00 out of 12
Air Quality Not available.
Flu Activity Not available.
METAR KMSO 301953Z 32013G18KT 10SM FEW080 23/05 A2985 RMK AO2 PK WND 28027/1930 SLP085 T02280050

More Conditions Fewer Conditions

10-Day Weather Forecast

Almanac

Astronomy

Aug. 30, 2014 Rise Set
Actual Time 6:53 AM MDT 8:19 PM MDT
Civil Twilight 6:21 AM MDT 8:51 PM MDT
Nautical Twilight 5:43 AM MDT 9:29 PM MDT
Astronomical Twilight 5:01 AM MDT 10:10 PM MDT
Moon 12:05 PM MDT 10:34 PM MDT
Length of Visible Light 14h 29m
Length of Day
13h 26m
Tomorrow will be 3m 13s shorter.
Waxing Crescent, 24% of the Moon is Illuminated
Today
Waxing Crescent
Sep 2
First Quarter
Sep 8
Full
Sep 15
Last Quarter
Sep 24
New

Today's Extremes

State Highs State Lows

Community

WunderPhotos

Upload Photos

1,748,623 photos uploaded!

WunderBlogs® & News

Nearby

Snow Depth

Station Depth Elevation
Stuart Mountain 0 in 7400 ft
Lubrecht Flume 0 in 4680 ft
Kraft Creek 0 in 4750 ft
Combination 0 in 5600 ft
Black Pine 1 in 7210 ft

Earthquake Activity

City Distance Mag. Time & Date
No recent earthquake activity has been reported nearby.
Minimum magnitude displayed is 2.5.

Coastal Water Temperatures

Place Temperature
No Stations Reporting

Nearby Weather Stations